createdAt,value
2018-06-16T00:01:06.805Z,20.52
2018-06-16T00:03:36.088Z,20.52
2018-06-16T00:06:05.136Z,20.49
2018-06-16T00:08:34.985Z,20.52
2018-06-16T00:11:04.362Z,20.47
2018-06-16T00:13:33.782Z,20.52
2018-06-16T00:16:03.141Z,20.46
2018-06-16T00:18:32.633Z,20.48
2018-06-16T00:21:02.084Z,20.45
2018-06-16T00:23:31.484Z,20.45
2018-06-16T00:26:00.807Z,20.36
2018-06-16T00:28:30.098Z,20.26
2018-06-16T00:30:59.908Z,20.27
2018-06-16T00:33:29.311Z,20.21
2018-06-16T00:35:58.667Z,20.26
2018-06-16T00:38:28.119Z,20.22
2018-06-16T00:40:57.447Z,20.17
2018-06-16T00:43:26.809Z,20.16
2018-06-16T00:45:56.246Z,20.00
2018-06-16T00:48:25.382Z,20.07
2018-06-16T00:50:54.775Z,20.14
2018-06-16T00:53:24.252Z,20.08
2018-06-16T00:55:53.680Z,20.10
2018-06-16T00:58:23.120Z,20.03
2018-06-16T01:00:52.534Z,20.00
2018-06-16T01:03:21.818Z,20.05
2018-06-16T01:05:51.094Z,19.91
2018-06-16T01:08:20.443Z,19.73
2018-06-16T01:10:49.760Z,19.68
2018-06-16T01:13:19.063Z,19.74
2018-06-16T01:15:48.640Z,19.74
2018-06-16T01:18:17.931Z,19.75
2018-06-16T01:20:47.275Z,19.70
2018-06-16T01:23:16.643Z,19.67
2018-06-16T01:25:46.097Z,19.56
2018-06-16T01:28:15.138Z,19.51
2018-06-16T01:30:44.479Z,19.40
2018-06-16T01:33:13.842Z,19.19
2018-06-16T01:35:43.165Z,19.19
2018-06-16T01:38:12.926Z,19.11
2018-06-16T01:40:42.245Z,19.09
2018-06-16T01:43:11.575Z,19.09
2018-06-16T01:45:40.945Z,18.96
2018-06-16T01:48:10.352Z,18.98
2018-06-16T01:50:39.751Z,18.93
2018-06-16T01:53:09.290Z,18.98
2018-06-16T01:55:38.631Z,18.87
2018-06-16T01:58:07.904Z,18.71
2018-06-16T02:00:37.643Z,18.42
2018-06-16T02:03:07.010Z,18.24
2018-06-16T02:05:36.401Z,18.25
2018-06-16T02:08:05.771Z,18.26
2018-06-16T02:10:35.086Z,18.40
2018-06-16T02:13:04.364Z,18.38
2018-06-16T02:15:33.708Z,18.50
2018-06-16T02:18:03.395Z,18.48
2018-06-16T02:20:32.762Z,18.51
2018-06-16T02:23:02.575Z,18.59
2018-06-16T02:25:31.858Z,18.48
2018-06-16T02:28:01.165Z,18.43
2018-06-16T02:30:30.490Z,18.51
2018-06-16T02:32:59.790Z,18.36
2018-06-16T02:35:29.172Z,18.44
2018-06-16T02:37:58.539Z,18.32
2018-06-16T02:40:27.790Z,18.24
2018-06-16T02:42:57.200Z,18.16
2018-06-16T02:45:27.223Z,18.28
2018-06-16T02:47:56.531Z,18.17
2018-06-16T02:50:26.009Z,18.16
2018-06-16T02:52:55.251Z,18.20
2018-06-16T02:55:24.519Z,18.22
2018-06-16T02:57:53.938Z,18.27
2018-06-16T03:00:23.255Z,18.31
2018-06-16T03:02:52.521Z,18.22
2018-06-16T03:05:21.590Z,18.33
2018-06-16T03:07:51.529Z,18.40
2018-06-16T03:10:20.839Z,18.33
2018-06-16T03:12:50.201Z,18.35
2018-06-16T03:15:19.579Z,18.20
2018-06-16T03:17:48.861Z,18.08
2018-06-16T03:20:18.895Z,18.06
2018-06-16T03:22:48.217Z,18.05
2018-06-16T03:25:17.518Z,17.94
2018-06-16T03:27:46.880Z,17.94
2018-06-16T03:30:16.557Z,17.67
2018-06-16T03:32:45.899Z,17.90
2018-06-16T03:35:15.261Z,18.08
2018-06-16T03:37:44.574Z,18.22
2018-06-16T03:40:13.913Z,18.27
2018-06-16T03:42:43.259Z,18.32
2018-06-16T03:45:12.577Z,18.11
2018-06-16T03:47:41.916Z,18.19
2018-06-16T03:50:11.259Z,18.17
2018-06-16T03:52:40.897Z,18.07
2018-06-16T03:55:10.211Z,18.02
2018-06-16T03:57:39.508Z,18.04
2018-06-16T04:00:09.125Z,18.51
2018-06-16T04:02:38.510Z,18.59
2018-06-16T04:05:07.830Z,18.87
2018-06-16T04:07:37.185Z,18.94
2018-06-16T04:10:06.561Z,18.98
2018-06-16T04:12:35.876Z,19.11
2018-06-16T04:15:05.603Z,19.23
2018-06-16T04:17:34.902Z,19.10
2018-06-16T04:20:04.235Z,19.13
2018-06-16T04:22:33.571Z,19.47
2018-06-16T04:25:02.901Z,19.47
2018-06-16T04:27:32.199Z,19.57
2018-06-16T04:30:01.483Z,19.63
2018-06-16T04:32:30.835Z,19.76
2018-06-16T04:35:00.148Z,19.96
2018-06-16T04:37:29.940Z,19.91
2018-06-16T04:39:59.202Z,20.13
2018-06-16T04:42:28.596Z,20.35
2018-06-16T04:44:58.028Z,20.40
2018-06-16T04:47:27.323Z,20.58
2018-06-16T04:49:56.626Z,20.66
2018-06-16T04:52:25.986Z,20.65
2018-06-16T04:54:55.414Z,20.59
2018-06-16T04:57:24.722Z,20.67
2018-06-16T04:59:54.263Z,20.72
2018-06-16T05:02:23.517Z,20.67
2018-06-16T05:04:52.830Z,20.80
2018-06-16T05:07:22.238Z,20.81
2018-06-16T05:09:51.568Z,21.00
2018-06-16T05:12:20.897Z,21.03
2018-06-16T05:14:50.162Z,21.07
2018-06-16T05:17:19.434Z,21.01
2018-06-16T05:19:48.802Z,21.24
2018-06-16T05:22:18.599Z,20.81
2018-06-16T05:24:47.979Z,21.00
2018-06-16T05:27:17.267Z,20.94
2018-06-16T05:29:46.567Z,21.13
2018-06-16T05:32:15.877Z,21.53
2018-06-16T05:34:45.192Z,21.83
2018-06-16T05:37:14.479Z,21.82
2018-06-16T05:39:43.734Z,22.06
2018-06-16T05:42:13.135Z,22.23
2018-06-16T05:44:42.976Z,22.34
2018-06-16T05:47:12.280Z,22.40
2018-06-16T05:49:41.557Z,22.74
2018-06-16T05:52:10.887Z,22.73
2018-06-16T05:54:40.261Z,23.03
2018-06-16T05:57:09.530Z,22.75
2018-06-16T05:59:38.953Z,23.12
2018-06-16T06:02:08.294Z,23.01
2018-06-16T06:04:38.236Z,22.97
2018-06-16T06:07:07.920Z,23.17
2018-06-16T06:09:37.194Z,23.44
2018-06-16T06:12:06.583Z,23.16
2018-06-16T06:14:35.805Z,23.52
2018-06-16T06:17:05.415Z,23.34
2018-06-16T06:19:34.754Z,23.43
2018-06-16T06:22:04.165Z,23.97
2018-06-16T06:24:33.518Z,24.07
2018-06-16T06:27:02.892Z,23.84
2018-06-16T06:29:32.815Z,23.81
2018-06-16T06:32:02.168Z,23.35
2018-06-16T06:34:31.485Z,23.42
2018-06-16T06:37:00.835Z,23.42
2018-06-16T06:39:30.172Z,23.50
2018-06-16T06:41:59.765Z,23.93
2018-06-16T06:44:29.230Z,24.10
2018-06-16T06:46:59.043Z,24.02
2018-06-16T06:49:28.341Z,24.22
2018-06-16T06:51:58.056Z,23.89
2018-06-16T06:54:28.207Z,23.87
2018-06-16T06:56:57.522Z,24.05
2018-06-16T06:59:26.900Z,23.81
2018-06-16T07:01:56.235Z,23.80
2018-06-16T07:04:25.544Z,23.85
2018-06-16T07:06:54.935Z,24.04
2018-06-16T07:09:24.368Z,24.33
2018-06-16T07:11:53.714Z,24.56
2018-06-16T07:14:23.518Z,24.65
2018-06-16T07:16:52.893Z,24.79
2018-06-16T07:19:22.242Z,25.11
2018-06-16T07:21:51.685Z,25.05
2018-06-16T07:24:21.003Z,24.87
2018-06-16T07:26:50.289Z,25.01
2018-06-16T07:29:19.680Z,24.36
2018-06-16T07:31:49.076Z,24.74
2018-06-16T07:34:18.400Z,24.91
2018-06-16T07:36:47.889Z,25.08
2018-06-16T07:39:17.235Z,24.89
2018-06-16T07:41:46.692Z,24.66
2018-06-16T07:44:16.025Z,24.73
2018-06-16T07:46:45.310Z,24.47
2018-06-16T07:49:14.671Z,24.62
2018-06-16T07:51:44.095Z,24.97
2018-06-16T07:54:13.564Z,25.20
2018-06-16T07:56:42.975Z,25.06
2018-06-16T07:59:12.306Z,25.59
2018-06-16T08:01:41.688Z,25.86
2018-06-16T08:04:11.057Z,25.80
2018-06-16T08:06:40.432Z,25.60
2018-06-16T08:09:11.043Z,25.44
2018-06-16T08:11:40.397Z,25.24
2018-06-16T08:14:09.699Z,25.91
2018-06-16T08:16:38.990Z,26.56
2018-06-16T08:19:08.357Z,26.47
2018-06-16T08:21:38.116Z,25.90
2018-06-16T08:24:07.417Z,25.69
2018-06-16T08:26:36.703Z,25.21
2018-06-16T08:29:06.340Z,26.05
2018-06-16T08:31:35.703Z,26.68
2018-06-16T08:34:05.126Z,26.67
2018-06-16T08:36:34.517Z,26.55
2018-06-16T08:39:04.440Z,26.44
2018-06-16T08:41:34.230Z,26.55
2018-06-16T08:44:04.085Z,26.24
2018-06-16T08:46:33.450Z,26.29
2018-06-16T08:49:02.766Z,26.17
2018-06-16T08:51:32.190Z,25.87
2018-06-16T08:54:01.594Z,26.31
2018-06-16T08:56:31.048Z,26.35
2018-06-16T08:59:00.451Z,26.80
2018-06-16T09:01:29.770Z,26.65
2018-06-16T09:03:59.055Z,26.40
2018-06-16T09:06:28.876Z,26.58
2018-06-16T09:08:58.382Z,26.99
2018-06-16T09:11:27.776Z,27.05
2018-06-16T09:13:57.127Z,27.47
2018-06-16T09:16:26.384Z,27.74
2018-06-16T09:18:55.971Z,27.93
2018-06-16T09:21:25.368Z,27.63
2018-06-16T09:23:54.444Z,27.74
2018-06-16T09:26:23.856Z,27.45
2018-06-16T09:28:53.470Z,26.99
2018-06-16T09:31:22.500Z,26.47
2018-06-16T09:33:51.999Z,26.26
2018-06-16T09:36:21.368Z,26.99
2018-06-16T09:38:50.703Z,27.17
2018-06-16T09:41:20.155Z,27.00
2018-06-16T09:43:49.550Z,27.62
2018-06-16T09:46:18.839Z,27.71
2018-06-16T09:48:48.227Z,27.62
2018-06-16T09:51:17.842Z,27.82
2018-06-16T09:53:47.218Z,27.80
2018-06-16T09:56:16.598Z,27.80
2018-06-16T09:58:45.941Z,27.53
2018-06-16T10:01:15.299Z,27.85
2018-06-16T10:03:44.690Z,27.50
2018-06-16T10:06:14.075Z,28.01
2018-06-16T10:08:43.420Z,28.44
2018-06-16T10:11:12.679Z,28.41
2018-06-16T10:13:42.387Z,28.88
2018-06-16T10:16:11.884Z,28.47
2018-06-16T10:18:41.187Z,28.45
2018-06-16T10:21:10.782Z,28.65
2018-06-16T10:23:40.095Z,28.66
2018-06-16T10:26:09.510Z,28.44
2018-06-16T10:28:38.981Z,28.76
2018-06-16T10:31:08.523Z,28.55
2018-06-16T10:33:37.831Z,29.07
2018-06-16T10:36:08.027Z,29.02
2018-06-16T10:38:37.409Z,29.61
2018-06-16T10:41:06.848Z,29.80
2018-06-16T10:43:36.397Z,29.91
2018-06-16T10:46:05.832Z,29.89
2018-06-16T10:48:35.134Z,29.30
2018-06-16T10:51:04.514Z,29.13
2018-06-16T10:53:33.873Z,29.06
2018-06-16T10:56:03.273Z,29.36
2018-06-16T10:58:32.908Z,29.42
2018-06-16T11:01:02.852Z,29.32
2018-06-16T11:03:32.189Z,29.20
2018-06-16T11:06:01.561Z,29.08
2018-06-16T11:08:31.129Z,29.25
2018-06-16T11:11:00.443Z,29.12
2018-06-16T11:13:29.900Z,29.46
2018-06-16T11:15:59.340Z,30.07
2018-06-16T11:18:28.819Z,30.29
2018-06-16T11:20:58.421Z,30.15
2018-06-16T11:23:27.731Z,29.32
2018-06-16T11:25:57.020Z,29.68
2018-06-16T11:28:26.331Z,29.28
2018-06-16T11:30:55.698Z,29.73
2018-06-16T11:33:25.126Z,29.94
2018-06-16T11:35:54.751Z,29.50
2018-06-16T11:38:24.373Z,29.75
2018-06-16T11:40:53.759Z,29.49
2018-06-16T11:43:23.605Z,29.42
2018-06-16T11:45:53.047Z,29.10
2018-06-16T11:48:22.422Z,29.66
2018-06-16T11:50:51.862Z,29.22
2018-06-16T11:53:21.229Z,29.24
2018-06-16T11:55:50.663Z,29.61
2018-06-16T11:58:20.124Z,29.59
2018-06-16T12:00:50.021Z,29.43
2018-06-16T12:03:19.136Z,28.77
2018-06-16T12:05:49.116Z,28.92
2018-06-16T12:08:18.466Z,28.99
2018-06-16T12:10:49.443Z,29.09
2018-06-16T12:13:18.794Z,28.87
2018-06-16T12:15:48.229Z,28.98
2018-06-16T12:18:17.552Z,28.48
2018-06-16T12:20:47.108Z,28.83
2018-06-16T12:23:16.436Z,28.56
2018-06-16T12:25:45.747Z,29.09
2018-06-16T12:28:15.337Z,28.82
2018-06-16T12:30:44.832Z,28.96
2018-06-16T12:33:14.256Z,28.19
2018-06-16T12:35:43.846Z,28.72
2018-06-16T12:38:13.220Z,29.59
2018-06-16T12:40:42.560Z,29.93
2018-06-16T12:43:11.946Z,30.02
2018-06-16T12:45:41.251Z,30.46
2018-06-16T12:48:10.710Z,30.68
2018-06-16T12:50:40.245Z,30.48
2018-06-16T12:53:09.704Z,30.66
2018-06-16T12:55:39.043Z,30.64
2018-06-16T12:58:08.451Z,30.82
2018-06-16T13:00:37.825Z,30.88
2018-06-16T13:03:07.276Z,31.04
2018-06-16T13:05:36.758Z,31.13
2018-06-16T13:08:06.174Z,31.18
2018-06-16T13:10:35.691Z,30.87
2018-06-16T13:13:05.471Z,31.00
2018-06-16T13:15:34.845Z,31.16
2018-06-16T13:18:04.235Z,31.23
2018-06-16T13:20:33.542Z,31.36
2018-06-16T13:23:03.075Z,31.64
2018-06-16T13:25:32.435Z,31.77
2018-06-16T13:28:02.557Z,31.93
2018-06-16T13:30:32.149Z,32.18
2018-06-16T13:33:01.994Z,31.95
2018-06-16T13:35:32.033Z,32.17
2018-06-16T13:38:01.508Z,31.67
2018-06-16T13:40:30.696Z,31.78
2018-06-16T13:43:00.380Z,31.51
2018-06-16T13:45:29.844Z,31.43
2018-06-16T13:47:59.649Z,31.27
2018-06-16T13:50:29.208Z,31.23
2018-06-16T13:52:58.771Z,30.91
2018-06-16T13:55:28.181Z,30.92
2018-06-16T13:57:57.948Z,31.12
2018-06-16T14:00:27.504Z,30.97
2018-06-16T14:02:56.853Z,30.95
2018-06-16T14:05:26.288Z,30.78
2018-06-16T14:07:55.777Z,30.64
2018-06-16T14:10:25.098Z,30.93
2018-06-16T14:12:55.036Z,30.95
2018-06-16T14:15:24.503Z,30.92
2018-06-16T14:17:53.890Z,30.65
2018-06-16T14:20:23.555Z,30.47
2018-06-16T14:22:52.941Z,30.52
2018-06-16T14:25:22.336Z,30.57
2018-06-16T14:27:51.893Z,30.41
2018-06-16T14:30:21.315Z,30.42
2018-06-16T14:32:50.654Z,30.17
2018-06-16T14:35:20.621Z,30.37
2018-06-16T14:37:50.140Z,30.40
2018-06-16T14:40:19.586Z,30.58
2018-06-16T14:42:49.086Z,30.29
2018-06-16T14:45:18.508Z,30.51
2018-06-16T14:47:47.937Z,30.45
2018-06-16T14:50:17.394Z,30.25
2018-06-16T14:52:46.857Z,30.39
2018-06-16T14:55:16.240Z,30.57
2018-06-16T14:57:45.997Z,30.76
2018-06-16T15:00:15.413Z,30.59
2018-06-16T15:02:44.922Z,30.14
2018-06-16T15:05:14.408Z,30.40
2018-06-16T15:07:43.850Z,29.74
2018-06-16T15:10:13.286Z,29.82
2018-06-16T15:12:42.681Z,30.36
2018-06-16T15:15:12.160Z,30.44
2018-06-16T15:17:41.578Z,30.65
2018-06-16T15:20:10.934Z,30.48
2018-06-16T15:22:40.411Z,29.80
2018-06-16T15:25:10.007Z,29.52
2018-06-16T15:27:39.814Z,28.68
2018-06-16T15:30:09.255Z,28.40
2018-06-16T15:32:38.633Z,28.63
2018-06-16T15:35:08.064Z,28.49
2018-06-16T15:37:37.503Z,28.00
2018-06-16T15:40:06.929Z,28.31
2018-06-16T15:42:36.330Z,28.07
2018-06-16T15:45:05.887Z,27.89
2018-06-16T15:47:35.242Z,27.82
2018-06-16T15:50:05.012Z,28.28
2018-06-16T15:52:34.471Z,28.07
2018-06-16T15:55:04.017Z,28.27
2018-06-16T15:57:33.304Z,28.29
2018-06-16T16:00:02.692Z,28.28
2018-06-16T16:02:32.146Z,28.11
2018-06-16T16:05:01.634Z,28.27
2018-06-16T16:07:31.065Z,28.24
2018-06-16T16:10:00.587Z,28.32
2018-06-16T16:12:30.242Z,28.15
2018-06-16T16:14:59.612Z,28.39
2018-06-16T16:17:29.051Z,28.64
2018-06-16T16:19:58.516Z,29.15
2018-06-16T16:22:27.904Z,29.53
2018-06-16T16:24:57.234Z,29.03
2018-06-16T16:27:26.695Z,29.15
2018-06-16T16:29:56.154Z,29.24
2018-06-16T16:32:25.515Z,29.18
2018-06-16T16:34:55.403Z,29.34
2018-06-16T16:37:24.846Z,29.40
2018-06-16T16:39:54.421Z,29.47
2018-06-16T16:42:23.544Z,29.54
2018-06-16T16:44:52.932Z,29.87
2018-06-16T16:47:22.299Z,29.88
2018-06-16T16:49:51.657Z,29.78
2018-06-16T16:52:21.156Z,30.04
2018-06-16T16:54:50.555Z,30.27
2018-06-16T16:57:20.514Z,30.18
2018-06-16T16:59:49.941Z,29.85
2018-06-16T17:02:19.353Z,29.79
2018-06-16T17:04:48.770Z,29.66
2018-06-16T17:07:18.211Z,29.44
2018-06-16T17:09:47.563Z,29.37
2018-06-16T17:12:16.966Z,29.39
2018-06-16T17:14:46.314Z,29.44
2018-06-16T17:17:15.692Z,29.33
2018-06-16T17:19:45.522Z,29.21
2018-06-16T17:22:14.885Z,29.17
2018-06-16T17:24:44.281Z,29.25
2018-06-16T17:27:13.777Z,29.22
2018-06-16T17:29:43.302Z,28.93
2018-06-16T17:32:12.647Z,28.85
2018-06-16T17:34:42.059Z,28.59
2018-06-16T17:37:11.444Z,28.78
2018-06-16T17:39:40.788Z,28.70
2018-06-16T17:42:10.433Z,28.74
2018-06-16T17:44:39.887Z,28.87
2018-06-16T17:47:09.310Z,28.84
2018-06-16T17:49:38.677Z,28.49
2018-06-16T17:52:08.291Z,28.56
2018-06-16T17:54:37.775Z,28.34
2018-06-16T17:57:07.274Z,28.37
2018-06-16T17:59:37.335Z,28.47
2018-06-16T18:02:06.778Z,28.49
2018-06-16T18:04:36.196Z,28.14
2018-06-16T18:07:05.554Z,27.97
2018-06-16T18:09:34.976Z,28.16
2018-06-16T18:12:04.344Z,27.95
2018-06-16T18:14:33.766Z,27.97
2018-06-16T18:17:03.145Z,27.64
2018-06-16T18:19:32.608Z,27.84
2018-06-16T18:22:02.044Z,27.80
2018-06-16T18:24:31.436Z,27.51
2018-06-16T18:27:01.164Z,27.70
2018-06-16T18:29:30.617Z,27.51
2018-06-16T18:32:00.030Z,27.61
2018-06-16T18:34:29.398Z,27.52
2018-06-16T18:36:58.731Z,27.63
2018-06-16T18:39:28.049Z,27.43
2018-06-16T18:41:57.460Z,27.68
2018-06-16T18:44:27.106Z,27.75
2018-06-16T18:46:56.551Z,27.59
2018-06-16T18:49:26.074Z,27.59
2018-06-16T18:51:55.444Z,27.54
2018-06-16T18:54:24.841Z,27.63
2018-06-16T18:56:54.319Z,27.34
2018-06-16T18:59:23.748Z,27.42
2018-06-16T19:01:53.231Z,27.37
2018-06-16T19:04:22.583Z,27.34
2018-06-16T19:06:51.956Z,27.43
2018-06-16T19:09:21.347Z,27.38
2018-06-16T19:11:51.237Z,27.39
2018-06-16T19:14:20.599Z,27.40
2018-06-16T19:16:49.931Z,27.37
2018-06-16T19:19:19.313Z,27.38
2018-06-16T19:21:48.648Z,27.30
2018-06-16T19:24:17.955Z,27.25
2018-06-16T19:26:47.336Z,27.20
2018-06-16T19:29:16.692Z,27.18
2018-06-16T19:31:46.112Z,27.16
2018-06-16T19:34:15.707Z,27.18
2018-06-16T19:36:45.033Z,27.14
2018-06-16T19:39:14.397Z,27.05
2018-06-16T19:41:43.865Z,27.00
2018-06-16T19:44:13.295Z,26.80
2018-06-16T19:46:44.614Z,26.73
2018-06-16T19:49:13.972Z,26.65
2018-06-16T19:51:43.393Z,26.34
2018-06-16T19:54:12.952Z,26.28
2018-06-16T19:56:42.329Z,26.29
2018-06-16T19:59:11.656Z,26.25
2018-06-16T20:01:41.191Z,26.24
2018-06-16T20:04:10.536Z,26.29
2018-06-16T20:06:40.088Z,26.13
2018-06-16T20:09:09.473Z,26.07
2018-06-16T20:11:38.876Z,25.96
2018-06-16T20:14:08.479Z,25.80
2018-06-16T20:16:38.362Z,25.88
2018-06-16T20:19:07.783Z,25.76
2018-06-16T20:21:37.097Z,25.70
2018-06-16T20:24:06.509Z,25.61
2018-06-16T20:26:36.923Z,25.22
2018-06-16T20:29:06.315Z,25.05
2018-06-16T20:31:35.792Z,24.85
2018-06-16T20:34:05.197Z,24.80
2018-06-16T20:36:34.548Z,24.88
2018-06-16T20:39:05.485Z,24.91
2018-06-16T20:41:34.867Z,24.92
2018-06-16T20:44:04.241Z,24.80
2018-06-16T20:46:33.646Z,24.58
2018-06-16T20:49:03.148Z,24.56
2018-06-16T20:51:32.554Z,24.46
2018-06-16T20:54:02.322Z,24.45
2018-06-16T20:56:31.686Z,24.57
2018-06-16T20:59:01.165Z,24.60
2018-06-16T21:01:30.648Z,24.34
2018-06-16T21:04:00.148Z,24.29
2018-06-16T21:06:29.602Z,24.28
2018-06-16T21:08:58.937Z,24.31
2018-06-16T21:11:28.288Z,24.33
2018-06-16T21:13:57.722Z,24.29
2018-06-16T21:16:27.069Z,24.23
2018-06-16T21:18:56.419Z,24.22
2018-06-16T21:21:25.712Z,24.11
2018-06-16T21:23:55.327Z,24.16
2018-06-16T21:26:24.633Z,24.08
2018-06-16T21:28:54.041Z,24.00
2018-06-16T21:31:23.647Z,23.95
2018-06-16T21:33:52.766Z,23.84
2018-06-16T21:36:22.319Z,23.70
2018-06-16T21:38:51.982Z,23.67
2018-06-16T21:41:21.358Z,23.58
2018-06-16T21:43:50.874Z,23.63
2018-06-16T21:46:20.583Z,23.67
2018-06-16T21:48:49.923Z,23.62
2018-06-16T21:51:19.540Z,23.63
2018-06-16T21:53:48.937Z,23.60
2018-06-16T21:56:18.294Z,23.64
2018-06-16T21:58:47.389Z,23.53
2018-06-16T22:01:17.185Z,23.51
2018-06-16T22:03:46.664Z,23.59
2018-06-16T22:06:16.041Z,23.61
2018-06-16T22:08:45.934Z,23.61
2018-06-16T22:11:15.437Z,23.46
2018-06-16T22:13:44.888Z,23.35
2018-06-16T22:16:14.290Z,23.32
2018-06-16T22:18:43.720Z,23.38
2018-06-16T22:21:13.050Z,23.42
2018-06-16T22:23:42.702Z,23.38
2018-06-16T22:26:12.097Z,23.43
2018-06-16T22:28:41.435Z,23.49
2018-06-16T22:31:11.215Z,23.50
2018-06-16T22:33:40.511Z,23.55
2018-06-16T22:36:10.050Z,23.56
2018-06-16T22:38:39.581Z,23.55
2018-06-16T22:41:09.010Z,23.57
2018-06-16T22:43:38.386Z,23.65
2018-06-16T22:46:07.807Z,23.63
2018-06-16T22:48:37.238Z,23.59
2018-06-16T22:51:06.553Z,23.51
2018-06-16T22:53:36.174Z,23.62
2018-06-16T22:56:05.734Z,23.66
2018-06-16T22:58:35.124Z,23.58
2018-06-16T23:01:04.599Z,23.53
2018-06-16T23:03:34.050Z,23.58
2018-06-16T23:06:03.868Z,23.60
2018-06-16T23:08:33.275Z,23.44
2018-06-16T23:11:02.617Z,23.24
2018-06-16T23:13:32.105Z,23.30
2018-06-16T23:16:02.042Z,23.30
2018-06-16T23:18:31.580Z,23.38
2018-06-16T23:21:00.915Z,23.43
2018-06-16T23:23:30.423Z,23.42
2018-06-16T23:25:59.905Z,23.36
2018-06-16T23:28:29.429Z,23.37
2018-06-16T23:30:58.951Z,23.38
2018-06-16T23:33:28.353Z,23.29
2018-06-16T23:35:57.791Z,23.32
2018-06-16T23:38:27.903Z,23.15
2018-06-16T23:40:57.369Z,23.03
2018-06-16T23:43:26.753Z,22.62
2018-06-16T23:45:56.243Z,21.93
2018-06-16T23:48:25.588Z,21.63
2018-06-16T23:50:54.977Z,22.09
2018-06-16T23:53:24.299Z,22.28
2018-06-16T23:55:53.644Z,22.55
2018-06-16T23:58:23.035Z,22.56
